Time;durP1;ratioP1;P1;durP2;ratioP2;P2;SDS_P1;SDS_P2;PMS_P1;PMS_P2;Temp;Humidity;BMP_temperature;BMP_pressure;BME280_temperature;BME280_humidity;BME280_pressure;Samples;Min_cycle;Max_cycle;Signal;HPM_P1;HPM_P2
2023/03/19 00:02:11;;;;;;;19.50;12.75;;;11.00;99.90;;;;;;5070539;28;20039;-63
2023/03/19 00:04:37;;;;;;;16.25;12.05;;;10.90;99.90;;;;;;5063843;28;20041;-64
2023/03/19 00:07:03;;;;;;;17.63;12.32;;;10.90;99.90;;;;;;5064445;28;20037;-64
2023/03/19 00:09:28;;;;;;;19.83;13.02;;;10.90;99.90;;;;;;5054588;28;20037;-64
2023/03/19 00:11:54;;;;;;;18.40;14.40;;;10.90;99.90;;;;;;5059374;28;20049;-63
2023/03/19 00:14:20;;;;;;;18.17;13.63;;;10.90;99.90;;;;;;5060547;28;20411;-63
2023/03/19 00:16:46;;;;;;;18.27;13.40;;;10.90;99.90;;;;;;5054865;28;20514;-63
2023/03/19 00:19:12;;;;;;;22.73;13.50;;;10.90;99.90;;;;;;5046071;28;20041;-62
2023/03/19 00:21:37;;;;;;;21.00;13.95;;;10.90;99.90;;;;;;5037522;28;20043;-64
2023/03/19 00:24:03;;;;;;;19.15;13.35;;;10.90;99.90;;;;;;5063499;28;20483;-64
2023/03/19 00:26:31;;;;;;;16.23;12.07;;;10.90;99.90;;;;;;5070918;28;20127;-64
2023/03/19 00:28:58;;;;;;;15.65;11.45;;;10.90;99.90;;;;;;5045637;28;20048;-64
2023/03/19 00:31:25;;;;;;;16.40;11.30;;;10.90;99.90;;;;;;5070376;28;20037;-64
2023/03/19 00:33:50;;;;;;;14.23;10.73;;;10.90;99.90;;;;;;5067513;28;20124;-63
2023/03/19 00:36:17;;;;;;;14.13;9.93;;;10.90;99.90;;;;;;5066468;28;20116;-62
2023/03/19 00:38:43;;;;;;;17.35;9.98;;;10.90;99.90;;;;;;5063560;28;20033;-61
2023/03/19 00:41:10;;;;;;;15.45;10.38;;;10.90;99.90;;;;;;5033248;28;20040;-64
2023/03/19 00:43:36;;;;;;;14.13;10.10;;;10.90;99.90;;;;;;5064782;28;20119;-64
2023/03/19 00:46:02;;;;;;;13.60;9.77;;;10.90;99.90;;;;;;5068462;28;20494;-64
2023/03/19 00:48:28;;;;;;;14.98;10.13;;;10.90;99.90;;;;;;5051973;28;20426;-64
2023/03/19 00:50:54;;;;;;;14.02;9.90;;;10.90;99.90;;;;;;5056072;28;20041;-64
2023/03/19 00:53:20;;;;;;;15.98;9.68;;;10.90;99.90;;;;;;5033147;28;20048;-62
2023/03/19 00:55:46;;;;;;;12.48;9.32;;;10.90;99.90;;;;;;5049450;28;20394;-63
2023/03/19 00:58:12;;;;;;;15.20;9.77;;;10.90;99.90;;;;;;5049935;28;20478;-64
2023/03/19 01:00:38;;;;;;;15.02;9.57;;;10.90;99.90;;;;;;5070675;28;20024;-65
2023/03/19 01:03:05;;;;;;;12.57;8.27;;;10.90;99.90;;;;;;5062711;28;20032;-64
2023/03/19 01:05:33;;;;;;;12.50;8.75;;;10.90;99.90;;;;;;5057564;28;20040;-64
2023/03/19 01:07:58;;;;;;;13.90;8.45;;;10.80;99.90;;;;;;5067163;28;20501;-61
2023/03/19 01:10:24;;;;;;;11.60;7.45;;;10.90;99.90;;;;;;5042922;28;20032;-64
2023/03/19 01:12:50;;;;;;;13.20;7.13;;;10.90;99.90;;;;;;5036988;28;20041;-64
2023/03/19 01:15:17;;;;;;;9.25;6.10;;;10.80;99.90;;;;;;5061703;28;20442;-63
2023/03/19 01:17:42;;;;;;;9.45;5.90;;;10.80;99.90;;;;;;5054745;28;20036;-64
2023/03/19 01:20:12;;;;;;;9.65;6.15;;;10.80;99.90;;;;;;5049311;28;20398;-64
2023/03/19 01:22:42;;;;;;;9.52;6.00;;;10.80;99.90;;;;;;5031724;28;20037;-63
2023/03/19 01:25:11;;;;;;;7.93;5.32;;;10.70;99.90;;;;;;5061941;28;20040;-64
2023/03/19 01:27:37;;;;;;;9.13;5.18;;;10.80;99.90;;;;;;5048262;28;20039;-65
2023/03/19 01:30:03;;;;;;;7.15;4.93;;;10.70;99.90;;;;;;5051536;28;20097;-65
2023/03/19 01:32:30;;;;;;;7.35;4.88;;;10.70;99.90;;;;;;5045025;28;20449;-65
2023/03/19 01:34:55;;;;;;;7.43;4.47;;;10.70;99.90;;;;;;5058587;28;20047;-65
2023/03/19 01:37:21;;;;;;;7.03;4.50;;;10.70;99.90;;;;;;5076214;28;20424;-64
2023/03/19 01:39:46;;;;;;;6.85;4.45;;;10.70;99.90;;;;;;5066429;28;20378;-64
2023/03/19 01:42:12;;;;;;;7.18;4.40;;;10.70;99.90;;;;;;5048598;28;20486;-65
2023/03/19 01:44:40;;;;;;;7.25;4.13;;;10.70;99.90;;;;;;5055993;28;20032;-65
2023/03/19 01:47:37;;;;;;;5.90;4.00;;;10.70;99.90;;;;;;5050664;28;20056;-64
2023/03/19 01:50:04;;;;;;;6.65;4.10;;;10.70;99.90;;;;;;5055187;28;20379;-64
2023/03/19 01:52:35;;;;;;;8.07;3.88;;;10.70;99.90;;;;;;5044814;28;20044;-64
2023/03/19 01:55:03;;;;;;;5.82;3.90;;;10.60;99.90;;;;;;5053161;28;20036;-64
2023/03/19 01:57:30;;;;;;;6.43;3.97;;;10.60;99.90;;;;;;5046348;28;20044;-63
2023/03/19 01:59:59;;;;;;;6.82;3.88;;;10.60;99.90;;;;;;5062559;28;20368;-64
2023/03/19 02:02:34;;;;;;;6.65;4.00;;;10.60;99.90;;;;;;5062424;28;20456;-64
2023/03/19 02:05:08;;;;;;;7.80;4.35;;;10.50;99.90;;;;;;5069140;28;20397;-64
2023/03/19 02:07:36;;;;;;;6.85;3.88;;;10.50;99.90;;;;;;5060886;28;20067;-64
2023/03/19 02:10:06;;;;;;;6.07;3.45;;;10.50;99.90;;;;;;5064437;28;20044;-64
2023/03/19 02:12:34;;;;;;;5.95;3.88;;;10.40;99.90;;;;;;5050441;28;20451;-63
2023/03/19 02:15:00;;;;;;;7.60;3.83;;;10.50;99.90;;;;;;5069446;28;20115;-64
2023/03/19 02:17:28;;;;;;;6.30;3.47;;;10.50;99.90;;;;;;5058604;28;20578;-64
2023/03/19 02:20:07;;;;;;;7.03;3.80;;;10.50;99.90;;;;;;5066399;28;20437;-63
2023/03/19 02:22:35;;;;;;;6.45;3.67;;;10.50;99.90;;;;;;5061609;28;20040;-64
2023/03/19 02:25:29;;;;;;;5.22;3.60;;;10.50;99.90;;;;;;5058957;28;20068;-64
2023/03/19 02:27:56;;;;;;;6.85;4.20;;;10.50;99.90;;;;;;5045338;28;20049;-63
2023/03/19 02:30:24;;;;;;;7.78;3.35;;;10.50;99.90;;;;;;5058112;28;20068;-63
2023/03/19 02:32:49;;;;;;;5.68;3.88;;;10.50;99.90;;;;;;5062813;28;20498;-63
2023/03/19 02:35:15;;;;;;;6.38;3.83;;;10.50;99.90;;;;;;5048695;28;20086;-64
2023/03/19 02:37:41;;;;;;;4.97;3.30;;;10.50;99.90;;;;;;5062136;28;20060;-63
2023/03/19 02:40:19;;;;;;;7.72;3.88;;;10.50;99.90;;;;;;5050644;28;20044;-63
2023/03/19 02:42:44;;;;;;;6.03;3.60;;;10.50;99.90;;;;;;5051607;28;20478;-64
2023/03/19 02:45:10;;;;;;;9.73;3.75;;;10.50;99.90;;;;;;5046985;28;20044;-64
2023/03/19 02:47:36;;;;;;;5.40;3.35;;;10.40;99.90;;;;;;5056397;28;20065;-63
2023/03/19 02:50:02;;;;;;;6.03;3.67;;;10.50;99.90;;;;;;5052672;28;20085;-63
2023/03/19 02:52:27;;;;;;;6.53;3.33;;;10.40;99.90;;;;;;5065362;28;20530;-63
2023/03/19 02:54:53;;;;;;;5.35;3.50;;;10.40;99.90;;;;;;5051539;28;20036;-63
2023/03/19 02:57:18;;;;;;;5.18;3.30;;;10.40;99.90;;;;;;5066255;28;20082;-63
2023/03/19 02:59:44;;;;;;;5.90;3.28;;;10.40;99.90;;;;;;5063182;28;20053;-63
2023/03/19 03:02:10;;;;;;;5.00;3.10;;;10.40;99.90;;;;;;5066908;28;20049;-62
2023/03/19 03:04:38;;;;;;;5.13;3.17;;;10.40;99.90;;;;;;5063884;28;20028;-64
2023/03/19 03:07:05;;;;;;;5.50;3.30;;;10.30;99.90;;;;;;5046212;28;20045;-63
2023/03/19 03:09:30;;;;;;;7.03;3.13;;;10.30;99.90;;;;;;5055363;28;20491;-63
2023/03/19 03:11:56;;;;;;;4.70;3.17;;;10.30;99.90;;;;;;5067778;28;20043;-63
2023/03/19 03:14:22;;;;;;;6.53;3.13;;;10.20;99.90;;;;;;5065910;28;20056;-63
2023/03/19 03:16:48;;;;;;;4.30;3.05;;;10.20;99.90;;;;;;5057307;28;20658;-63
2023/03/19 03:19:13;;;;;;;6.97;3.20;;;10.20;99.90;;;;;;5054038;28;20408;-63
2023/03/19 03:21:39;;;;;;;5.22;3.67;;;10.20;99.90;;;;;;5054411;28;20064;-63
2023/03/19 03:24:05;;;;;;;4.97;3.17;;;10.20;99.90;;;;;;5053799;28;20036;-63
2023/03/19 03:26:30;;;;;;;5.07;3.20;;;10.10;99.90;;;;;;5039226;28;20486;-63
2023/03/19 03:28:56;;;;;;;4.82;3.33;;;10.10;99.90;;;;;;5072402;28;20029;-64
2023/03/19 03:31:22;;;;;;;5.38;3.25;;;10.10;99.90;;;;;;5052167;28;20047;-63
2023/03/19 03:33:47;;;;;;;4.88;3.53;;;10.10;99.90;;;;;;5057467;28;20036;-63
2023/03/19 03:36:13;;;;;;;5.75;3.50;;;10.10;99.90;;;;;;5057786;28;20025;-63
2023/03/19 03:38:39;;;;;;;5.20;3.78;;;10.00;99.90;;;;;;5047331;28;20033;-63
2023/03/19 03:41:05;;;;;;;8.25;4.40;;;10.00;99.90;;;;;;5050957;28;20169;-63
2023/03/19 03:43:30;;;;;;;5.65;3.60;;;10.00;99.90;;;;;;5069883;28;20041;-63
2023/03/19 03:45:56;;;;;;;5.93;3.90;;;10.00;99.90;;;;;;5070201;28;20043;-63
2023/03/19 03:48:22;;;;;;;4.97;4.05;;;10.00;99.90;;;;;;5052893;28;20127;-63
2023/03/19 03:50:47;;;;;;;6.18;4.35;;;10.00;99.90;;;;;;5061450;28;20044;-63
2023/03/19 03:53:14;;;;;;;6.47;4.00;;;10.00;99.90;;;;;;5072141;28;20094;-63
2023/03/19 03:55:40;;;;;;;4.93;3.63;;;10.00;99.90;;;;;;5053761;28;20052;-63
2023/03/19 03:58:06;;;;;;;6.57;4.22;;;10.10;99.90;;;;;;5069108;28;20410;-63
2023/03/19 04:00:32;;;;;;;6.28;4.18;;;10.10;99.90;;;;;;5076500;28;20029;-63
2023/03/19 04:02:58;;;;;;;6.32;3.80;;;10.10;99.90;;;;;;5065817;28;20379;-63
2023/03/19 04:05:24;;;;;;;6.13;3.95;;;10.10;99.90;;;;;;5053407;28;20124;-63
2023/03/19 04:07:51;;;;;;;5.10;3.80;;;10.10;99.90;;;;;;5062217;28;20127;-63
2023/03/19 04:10:17;;;;;;;5.75;3.95;;;10.20;99.90;;;;;;5061529;28;20552;-63
2023/03/19 04:12:44;;;;;;;5.95;4.00;;;10.10;99.90;;;;;;5050457;28;20037;-63
2023/03/19 04:15:10;;;;;;;5.07;3.75;;;10.20;99.90;;;;;;5067282;28;20361;-63
2023/03/19 04:17:37;;;;;;;7.05;4.32;;;10.10;99.90;;;;;;5051565;28;20569;-64
2023/03/19 04:20:04;;;;;;;5.55;3.90;;;10.20;99.90;;;;;;5063379;28;20040;-62
2023/03/19 04:22:30;;;;;;;5.75;4.00;;;10.10;99.90;;;;;;5065470;28;20041;-63
2023/03/19 04:24:56;;;;;;;7.65;4.28;;;10.20;99.90;;;;;;5056564;28;20040;-63
2023/03/19 04:27:21;;;;;;;5.93;3.95;;;10.10;99.90;;;;;;5068150;28;20095;-63
2023/03/19 04:29:47;;;;;;;5.40;3.85;;;10.20;99.90;;;;;;5053782;28;20055;-64
2023/03/19 04:32:13;;;;;;;6.45;4.18;;;10.10;99.90;;;;;;5063101;28;20079;-63
2023/03/19 04:34:38;;;;;;;6.88;4.55;;;10.10;99.90;;;;;;5070672;28;20036;-63
2023/03/19 04:37:04;;;;;;;5.63;4.00;;;10.10;99.90;;;;;;5068094;28;20711;-63
2023/03/19 04:39:30;;;;;;;8.07;4.00;;;10.10;99.90;;;;;;5073554;28;20478;-65
2023/03/19 04:41:56;;;;;;;5.57;4.03;;;10.10;99.90;;;;;;5062652;28;20040;-63
2023/03/19 04:44:22;;;;;;;5.88;3.95;;;10.10;99.90;;;;;;5050071;28;20041;-63
2023/03/19 04:46:48;;;;;;;5.80;3.80;;;10.10;99.90;;;;;;5050990;28;20040;-63
2023/03/19 04:49:14;;;;;;;7.90;4.00;;;10.10;99.90;;;;;;5068491;28;20521;-62
2023/03/19 04:51:41;;;;;;;7.05;4.07;;;10.10;99.90;;;;;;5072430;28;20043;-63
2023/03/19 04:54:07;;;;;;;8.60;4.40;;;10.00;99.90;;;;;;5057274;28;20125;-63
2023/03/19 04:56:33;;;;;;;6.53;4.10;;;10.00;99.90;;;;;;5060797;28;20111;-63
2023/03/19 04:58:58;;;;;;;5.80;4.05;;;10.00;99.90;;;;;;5069803;28;20144;-63
2023/03/19 05:01:24;;;;;;;6.88;4.35;;;10.00;99.90;;;;;;5062648;28;20106;-63
2023/03/19 05:03:50;;;;;;;6.55;4.18;;;10.00;99.90;;;;;;5079722;28;20051;-63
2023/03/19 05:06:16;;;;;;;6.47;4.20;;;9.90;99.90;;;;;;5064497;28;20040;-64
2023/03/19 05:08:42;;;;;;;6.03;4.40;;;9.90;99.90;;;;;;5067236;28;20389;-63
2023/03/19 05:11:08;;;;;;;6.53;4.25;;;9.80;99.90;;;;;;5069387;28;20036;-63
2023/03/19 05:13:34;;;;;;;6.90;4.40;;;9.80;99.90;;;;;;5058771;28;20040;-63
2023/03/19 05:16:00;;;;;;;7.18;4.45;;;9.70;99.90;;;;;;5068805;28;20048;-63
2023/03/19 05:18:26;;;;;;;8.68;4.10;;;9.70;99.90;;;;;;5050491;28;20032;-62
2023/03/19 05:20:52;;;;;;;6.10;4.30;;;9.70;99.90;;;;;;5061290;28;20379;-63
2023/03/19 05:23:17;;;;;;;8.57;4.28;;;9.60;99.90;;;;;;5050572;28;20487;-63
2023/03/19 05:25:43;;;;;;;7.38;4.88;;;9.60;99.90;;;;;;5055275;28;20441;-64
2023/03/19 05:28:09;;;;;;;8.93;4.80;;;9.50;99.90;;;;;;5048760;28;20612;-63
2023/03/19 05:30:35;;;;;;;6.20;4.40;;;9.50;99.90;;;;;;5062056;28;20040;-63
2023/03/19 05:33:01;;;;;;;7.78;4.70;;;9.50;99.90;;;;;;5073334;28;20032;-62
2023/03/19 05:35:28;;;;;;;6.50;4.65;;;9.50;99.90;;;;;;5062567;28;20043;-63
2023/03/19 05:37:54;;;;;;;7.68;5.15;;;9.50;99.90;;;;;;5060291;28;20055;-63
2023/03/19 05:40:22;;;;;;;7.57;5.05;;;9.50;99.90;;;;;;5060509;28;20394;-63
2023/03/19 05:42:48;;;;;;;7.18;5.18;;;9.50;99.90;;;;;;5066377;28;20374;-63
2023/03/19 05:45:13;;;;;;;8.48;5.03;;;9.50;99.90;;;;;;5035447;28;20040;-63
2023/03/19 05:47:39;;;;;;;8.43;5.40;;;9.40;99.90;;;;;;5050338;28;20518;-63
2023/03/19 05:50:06;;;;;;;7.85;4.90;;;9.40;99.90;;;;;;5051117;28;20047;-64
2023/03/19 05:52:32;;;;;;;7.45;5.38;;;9.40;99.90;;;;;;5054681;28;20074;-63
2023/03/19 05:54:57;;;;;;;8.65;5.60;;;9.40;99.90;;;;;;5061257;28;20036;-64
2023/03/19 05:57:23;;;;;;;7.78;5.38;;;9.40;99.90;;;;;;5050409;28;20045;-63
2023/03/19 05:59:49;;;;;;;10.45;5.63;;;9.40;99.90;;;;;;5069522;28;20036;-63
2023/03/19 06:02:14;;;;;;;8.45;5.88;;;9.30;99.90;;;;;;5063673;28;20123;-63
2023/03/19 06:04:40;;;;;;;9.65;6.30;;;9.30;99.90;;;;;;5047388;28;20410;-64
2023/03/19 06:07:06;;;;;;;7.95;5.70;;;9.30;99.90;;;;;;5063916;28;20036;-63
2023/03/19 06:09:31;;;;;;;9.40;6.22;;;9.30;99.90;;;;;;5055854;28;20399;-62
2023/03/19 06:11:57;;;;;;;8.82;6.57;;;9.30;99.90;;;;;;5045846;28;20080;-63
2023/03/19 06:14:23;;;;;;;11.48;6.65;;;9.30;99.90;;;;;;5051788;28;20131;-63
2023/03/19 06:16:49;;;;;;;9.70;6.60;;;9.30;99.90;;;;;;5068657;28;20390;-63
2023/03/19 06:19:14;;;;;;;10.73;6.70;;;9.20;99.90;;;;;;5065322;28;20041;-63
2023/03/19 06:21:40;;;;;;;10.48;6.80;;;9.30;99.90;;;;;;5070123;28;20055;-63
2023/03/19 06:24:06;;;;;;;11.07;7.65;;;9.20;99.90;;;;;;5067284;28;20047;-64
2023/03/19 06:26:31;;;;;;;10.23;7.65;;;9.20;99.90;;;;;;5063437;28;20029;-62
2023/03/19 06:28:57;;;;;;;10.57;7.57;;;9.30;99.90;;;;;;5066289;28;20087;-62
2023/03/19 06:31:23;;;;;;;12.15;7.78;;;9.30;99.90;;;;;;5069627;28;20029;-62
2023/03/19 06:33:49;;;;;;;13.13;7.82;;;9.30;99.90;;;;;;5066907;28;20040;-62
2023/03/19 06:36:16;;;;;;;13.00;7.97;;;9.30;99.90;;;;;;5039705;28;20049;-62
2023/03/19 06:38:44;;;;;;;11.70;8.13;;;9.30;99.90;;;;;;5063702;28;20060;-62
2023/03/19 06:41:10;;;;;;;11.20;7.93;;;9.30;99.90;;;;;;5046342;28;20041;-62
2023/03/19 06:43:36;;;;;;;13.63;8.55;;;9.30;99.90;;;;;;5063478;28;20060;-63
2023/03/19 06:46:03;;;;;;;12.70;8.13;;;9.30;99.90;;;;;;5061393;28;20086;-63
2023/03/19 06:48:28;;;;;;;12.93;8.20;;;9.30;99.90;;;;;;5058857;28;20044;-63
2023/03/19 06:50:54;;;;;;;11.00;7.93;;;9.30;99.90;;;;;;5067020;28;20047;-63
2023/03/19 06:53:19;;;;;;;11.48;8.68;;;9.30;99.90;;;;;;5063816;28;20040;-63
2023/03/19 06:55:45;;;;;;;12.48;8.60;;;9.30;99.90;;;;;;5068250;28;20124;-63
2023/03/19 06:58:14;;;;;;;11.70;8.27;;;9.30;99.90;;;;;;5057200;28;20102;-63
2023/03/19 07:00:40;;;;;;;11.40;7.70;;;9.30;99.90;;;;;;5049956;28;20119;-63
2023/03/19 07:03:06;;;;;;;11.55;7.95;;;9.30;99.90;;;;;;5059772;28;20128;-63
2023/03/19 07:05:32;;;;;;;12.80;8.32;;;9.30;99.90;;;;;;5068915;28;20045;-63
2023/03/19 07:07:57;;;;;;;11.98;8.55;;;9.40;99.90;;;;;;5070293;28;20046;-63
2023/03/19 07:10:23;;;;;;;13.23;8.95;;;9.40;99.90;;;;;;5064869;28;20091;-62
2023/03/19 07:12:49;;;;;;;13.07;8.85;;;9.40;99.90;;;;;;5069092;28;20056;-63
2023/03/19 07:15:16;;;;;;;12.52;8.90;;;9.40;99.90;;;;;;5059392;28;20372;-65
2023/03/19 07:17:44;;;;;;;13.60;9.07;;;9.40;99.90;;;;;;5063797;28;20090;-62
2023/03/19 07:20:15;;;;;;;12.43;9.10;;;9.50;99.90;;;;;;5066552;28;20040;-64
2023/03/19 07:22:40;;;;;;;14.20;9.85;;;9.50;99.90;;;;;;5054462;28;20040;-63
2023/03/19 07:25:07;;;;;;;13.55;9.38;;;9.50;99.90;;;;;;5068355;28;20048;-63
2023/03/19 07:27:33;;;;;;;16.13;10.18;;;9.60;99.90;;;;;;5050283;28;20040;-63
2023/03/19 07:29:58;;;;;;;15.52;10.02;;;9.70;99.90;;;;;;5069674;28;20497;-63
2023/03/19 07:32:24;;;;;;;16.30;9.73;;;9.70;99.90;;;;;;5048914;28;20132;-63
2023/03/19 07:34:50;;;;;;;15.18;10.13;;;9.70;99.90;;;;;;5052227;28;20075;-63
2023/03/19 07:37:15;;;;;;;16.98;10.15;;;9.70;99.90;;;;;;5067683;28;20068;-63
2023/03/19 07:39:41;;;;;;;15.90;10.80;;;9.80;99.90;;;;;;5068872;28;20420;-63
2023/03/19 07:42:07;;;;;;;17.58;10.93;;;9.70;99.90;;;;;;5070103;28;20040;-63
2023/03/19 07:44:32;;;;;;;16.33;11.27;;;9.80;99.90;;;;;;5068959;28;20177;-63
2023/03/19 07:46:58;;;;;;;17.05;11.30;;;9.80;99.90;;;;;;5066652;28;20406;-63
2023/03/19 07:49:24;;;;;;;15.02;10.70;;;9.80;99.90;;;;;;5068307;28;20033;-63
2023/03/19 07:51:50;;;;;;;16.45;10.85;;;9.90;99.90;;;;;;5071128;28;20071;-63
2023/03/19 07:54:15;;;;;;;17.50;12.13;;;9.90;99.90;;;;;;5066828;28;20068;-63
2023/03/19 07:56:41;;;;;;;19.55;12.13;;;10.00;99.90;;;;;;5063561;28;20032;-64
2023/03/19 07:59:07;;;;;;;16.20;11.30;;;10.00;99.90;;;;;;5069399;28;20119;-63
2023/03/19 08:01:33;;;;;;;17.80;12.68;;;10.10;99.90;;;;;;5063799;28;20062;-63
2023/03/19 08:03:58;;;;;;;19.25;13.23;;;10.10;99.90;;;;;;5051544;28;20321;-63
2023/03/19 08:06:25;;;;;;;18.35;12.32;;;10.20;99.90;;;;;;5055990;28;20601;-64
2023/03/19 08:08:50;;;;;;;19.27;12.38;;;10.20;99.90;;;;;;5067204;28;20386;-63
2023/03/19 08:11:16;;;;;;;19.33;12.65;;;10.20;99.90;;;;;;5050899;28;20040;-63
2023/03/19 08:13:42;;;;;;;16.58;11.85;;;10.30;99.90;;;;;;5053076;28;20409;-62
2023/03/19 08:16:07;;;;;;;20.02;12.15;;;10.40;99.90;;;;;;5049464;28;20052;-62
2023/03/19 08:18:34;;;;;;;17.73;11.75;;;10.50;99.90;;;;;;5050195;28;20039;-62
2023/03/19 08:21:00;;;;;;;15.85;11.55;;;10.60;99.90;;;;;;5054870;28;20128;-62
2023/03/19 08:23:26;;;;;;;15.48;10.70;;;10.70;99.90;;;;;;5068719;28;20609;-62
2023/03/19 08:25:52;;;;;;;19.73;10.63;;;10.80;99.90;;;;;;5067898;28;20506;-63
2023/03/19 08:28:19;;;;;;;15.27;11.35;;;10.80;99.90;;;;;;5068448;28;20040;-62
2023/03/19 08:30:44;;;;;;;16.17;11.10;;;10.80;99.90;;;;;;5067400;28;20043;-62
2023/03/19 08:33:10;;;;;;;14.27;10.77;;;10.80;99.90;;;;;;5066628;28;20028;-63
2023/03/19 08:35:36;;;;;;;17.50;10.88;;;10.90;99.90;;;;;;5068900;28;20114;-63
2023/03/19 08:38:02;;;;;;;17.17;11.23;;;10.90;99.90;;;;;;5069193;28;20302;-63
2023/03/19 08:40:27;;;;;;;19.75;11.40;;;10.90;99.90;;;;;;5053761;28;20102;-63
2023/03/19 08:42:54;;;;;;;18.67;12.25;;;10.90;99.90;;;;;;5068491;28;20047;-63
2023/03/19 08:45:20;;;;;;;22.55;12.63;;;10.90;99.90;;;;;;5052670;28;20732;-63
2023/03/19 08:47:47;;;;;;;18.10;13.25;;;11.00;99.90;;;;;;5054825;28;20115;-63
2023/03/19 08:50:13;;;;;;;17.33;12.23;;;11.00;99.90;;;;;;5064577;28;20069;-64
2023/03/19 08:52:39;;;;;;;19.33;12.95;;;11.00;99.90;;;;;;5050617;28;20579;-63
2023/03/19 08:55:07;;;;;;;16.73;12.02;;;11.00;99.90;;;;;;5049413;28;20041;-63
2023/03/19 08:57:33;;;;;;;16.95;12.90;;;11.00;99.90;;;;;;5059345;28;20032;-63
2023/03/19 08:59:59;;;;;;;16.75;11.95;;;11.00;99.90;;;;;;5051559;28;20128;-63
2023/03/19 09:02:25;;;;;;;18.20;12.18;;;11.00;99.90;;;;;;5047978;28;20546;-62
2023/03/19 09:04:51;;;;;;;19.88;13.10;;;11.00;99.90;;;;;;5062014;28;20064;-63
2023/03/19 09:07:16;;;;;;;17.02;11.70;;;11.00;99.90;;;;;;5059681;28;20457;-63
2023/03/19 09:09:43;;;;;;;17.55;11.73;;;11.00;99.90;;;;;;5050351;28;20124;-64
2023/03/19 09:12:11;;;;;;;16.10;11.70;;;11.10;99.90;;;;;;5058009;28;20473;-64
2023/03/19 09:14:37;;;;;;;14.98;10.90;;;11.10;99.90;;;;;;5052948;28;20483;-62
2023/03/19 09:17:03;;;;;;;15.27;10.70;;;11.20;99.90;;;;;;5053121;28;20037;-64
2023/03/19 09:19:29;;;;;;;16.17;11.60;;;11.30;99.90;;;;;;5055698;28;20095;-63
2023/03/19 09:21:55;;;;;;;17.98;12.75;;;11.30;99.90;;;;;;5054847;28;20557;-65
2023/03/19 09:24:21;;;;;;;18.90;12.75;;;11.30;99.90;;;;;;5056978;28;20029;-64
2023/03/19 09:26:48;;;;;;;18.52;12.32;;;11.30;99.90;;;;;;5050829;28;20390;-64
2023/03/19 09:29:14;;;;;;;19.73;12.98;;;11.30;99.90;;;;;;5050184;28;20513;-64
2023/03/19 09:31:40;;;;;;;15.88;11.60;;;11.30;99.90;;;;;;5065367;28;20040;-64
2023/03/19 09:34:07;;;;;;;17.13;11.85;;;11.30;99.90;;;;;;5050446;28;20064;-65
2023/03/19 09:36:34;;;;;;;17.95;12.13;;;11.30;99.90;;;;;;5055510;28;20051;-65
2023/03/19 09:39:00;;;;;;;19.30;12.23;;;11.30;99.90;;;;;;5043445;28;20052;-63
2023/03/19 09:41:47;;;;;;;17.33;13.07;;;11.40;99.90;;;;;;5057848;28;20036;-65
2023/03/19 09:44:26;;;;;;;19.50;13.38;;;11.40;99.90;;;;;;5056346;28;20525;-64
2023/03/19 09:47:01;;;;;;;20.55;14.95;;;11.40;99.90;;;;;;5053977;28;20667;-65
2023/03/19 09:49:31;;;;;;;21.92;14.65;;;11.30;99.90;;;;;;5067747;28;20033;-65
2023/03/19 09:52:32;;;;;;;16.60;13.00;;;11.30;99.90;;;;;;5054530;28;20037;-64
2023/03/19 09:55:15;;;;;;;19.23;13.70;;;11.30;99.90;;;;;;5004818;28;20042;-65
2023/03/19 09:57:41;;;;;;;17.00;12.77;;;11.30;99.90;;;;;;5051455;28;20045;-65
2023/03/19 10:00:35;;;;;;;18.65;12.98;;;11.40;99.90;;;;;;5051005;28;20380;-65
2023/03/19 10:03:24;;;;;;;16.92;12.73;;;11.50;99.90;;;;;;5034248;28;20052;-65
2023/03/19 10:06:15;;;;;;;19.85;13.10;;;11.70;99.90;;;;;;4993743;28;20273;-65
2023/03/19 10:09:09;;;;;;;18.88;12.60;;;11.70;99.90;;;;;;5059777;28;20120;-65
2023/03/19 10:11:56;;;;;;;17.30;12.73;;;11.80;99.90;;;;;;5061549;28;20033;-62
2023/03/19 10:14:53;;;;;;;16.20;11.93;;;11.80;99.90;;;;;;5061914;28;20402;-65
2023/03/19 10:17:29;;;;;;;15.75;11.80;;;11.80;99.90;;;;;;5017582;28;20571;-64
2023/03/19 10:20:01;;;;;;;16.98;12.07;;;11.90;99.90;;;;;;5038720;28;20113;-65
2023/03/19 10:22:34;;;;;;;;;;;11.90;99.90;;;;;;5066364;28;20044;-62
2023/03/19 10:25:01;;;;;;;16.23;11.80;;;11.90;99.90;;;;;;5062307;28;19979;-65
2023/03/19 10:27:30;;;;;;;16.98;12.45;;;11.90;99.90;;;;;;5065946;28;20085;-64
2023/03/19 10:29:56;;;;;;;16.95;11.77;;;11.90;99.90;;;;;;5048031;28;20040;-65
2023/03/19 10:32:36;;;;;;;16.65;12.02;;;12.00;99.90;;;;;;5052934;28;20455;-64
2023/03/19 10:35:11;;;;;;;17.63;12.60;;;12.20;99.90;;;;;;5061386;28;20414;-65
2023/03/19 10:37:37;;;;;;;18.13;12.23;;;12.40;99.90;;;;;;5063856;28;20041;-63
2023/03/19 10:40:33;;;;;;;15.55;11.63;;;12.50;99.90;;;;;;5068135;28;20121;-65
2023/03/19 10:43:19;;;;;;;17.75;12.05;;;12.70;99.90;;;;;;5067890;28;20087;-63
2023/03/19 10:45:45;;;;;;;18.17;11.95;;;12.80;99.90;;;;;;5072955;28;20032;-65
2023/03/19 10:48:18;;;;;;;16.45;11.13;;;12.80;99.90;;;;;;5055217;28;20127;-65
2023/03/19 10:50:57;;;;;;;15.05;11.50;;;12.90;99.90;;;;;;5053725;28;20514;-63
2023/03/19 10:53:33;;;;;;;17.00;12.48;;;12.90;99.90;;;;;;5064907;28;20037;-65
2023/03/19 10:56:04;;;;;;;16.75;11.95;;;12.90;99.90;;;;;;5054740;28;20063;-65
2023/03/19 10:58:33;;;;;;;16.95;12.32;;;13.00;99.90;;;;;;5051171;28;20045;-65
2023/03/19 11:01:05;;;;;;;16.10;12.32;;;13.00;99.90;;;;;;5071855;28;20471;-63
2023/03/19 11:03:32;;;;;;;16.17;12.82;;;13.10;99.90;;;;;;5068822;28;20036;-65
2023/03/19 11:06:16;;;;;;;17.90;12.50;;;13.10;99.90;;;;;;5060256;28;20094;-65
2023/03/19 11:08:42;;;;;;;16.48;12.05;;;13.20;99.90;;;;;;5046191;28;20525;-64
2023/03/19 11:11:45;;;;;;;18.63;12.93;;;13.20;99.90;;;;;;5057726;28;20102;-65
2023/03/19 11:14:34;;;;;;;17.58;12.65;;;13.20;99.90;;;;;;5038532;28;20143;-65
2023/03/19 11:17:36;;;;;;;16.85;12.88;;;13.40;99.90;;;;;;5075075;28;20040;-62
2023/03/19 11:20:20;;;;;;;15.98;12.77;;;13.50;99.90;;;;;;5065481;28;20037;-65
2023/03/19 11:22:47;;;;;;;18.48;12.82;;;13.70;99.90;;;;;;5072454;28;20043;-65
2023/03/19 11:25:18;;;;;;;17.80;12.45;;;13.90;99.90;;;;;;5061363;28;20089;-65
2023/03/19 11:28:00;;;;;;;17.17;12.60;;;14.00;99.90;;;;;;5044091;28;20055;-65
2023/03/19 11:30:35;;;;;;;17.30;13.05;;;14.10;99.90;;;;;;5068495;28;20395;-65
2023/03/19 11:33:26;;;;;;;18.42;13.32;;;14.30;99.90;;;;;;5070353;28;20479;-63
2023/03/19 11:36:13;;;;;;;17.67;12.57;;;14.50;99.90;;;;;;5059613;28;20036;-64
2023/03/19 11:39:06;;;;;;;17.25;12.27;;;14.80;99.90;;;;;;5066942;28;20131;-65
2023/03/19 11:41:52;;;;;;;16.67;13.00;;;15.00;99.90;;;;;;5070517;28;20390;-65
2023/03/19 11:44:25;;;;;;;17.90;13.10;;;15.10;99.90;;;;;;5067334;28;20029;-65
2023/03/19 11:47:11;;;;;;;15.65;12.65;;;15.10;99.90;;;;;;5068828;28;20040;-65
2023/03/19 11:49:59;;;;;;;17.45;13.00;;;15.10;99.90;;;;;;5064616;28;20372;-63
2023/03/19 11:52:27;;;;;;;17.48;13.38;;;15.00;99.90;;;;;;5051487;28;20094;-65
2023/03/19 11:55:04;;;;;;;19.73;13.70;;;14.80;99.90;;;;;;5067642;28;20499;-65
2023/03/19 11:57:45;;;;;;;19.95;13.73;;;14.70;99.90;;;;;;5052627;28;20036;-63
2023/03/19 12:00:28;;;;;;;17.75;13.45;;;14.50;99.90;;;;;;5067465;28;20032;-64
2023/03/19 12:03:27;;;;;;;18.25;13.20;;;14.50;99.90;;;;;;5053192;28;20036;-64
2023/03/19 12:06:05;;;;;;;18.48;12.35;;;14.60;99.90;;;;;;5068662;28;20119;-64
2023/03/19 12:08:54;;;;;;;17.48;13.45;;;14.70;99.90;;;;;;5068806;28;20406;-65
2023/03/19 12:11:37;;;;;;;16.60;12.63;;;14.70;99.90;;;;;;5021295;28;20500;-64
2023/03/19 12:14:15;;;;;;;;;;;14.70;99.90;;;;;;5044340;28;20043;-62
2023/03/19 12:16:50;;;;;;;17.83;13.13;;;14.70;99.90;;;;;;5060619;28;19995;-64
2023/03/19 12:19:16;;;;;;;17.85;13.13;;;14.70;99.90;;;;;;5058321;28;20399;-63
2023/03/19 12:21:50;;;;;;;18.20;13.45;;;14.70;99.90;;;;;;5042200;28;20473;-64
2023/03/19 12:24:38;;;;;;;16.05;12.02;;;14.60;99.90;;;;;;5035123;28;20040;-65
2023/03/19 12:27:32;;;;;;;17.13;12.65;;;14.70;99.90;;;;;;5064316;28;20041;-65
2023/03/19 12:30:01;;;;;;;21.92;13.40;;;14.80;99.90;;;;;;5063407;28;20037;-65
2023/03/19 12:32:42;;;;;;;17.25;12.38;;;15.00;99.90;;;;;;5045011;28;20068;-64
2023/03/19 12:35:13;;;;;;;18.30;13.85;;;15.20;99.90;;;;;;5058947;28;20134;-63
2023/03/19 12:37:45;;;;;;;16.00;12.70;;;15.20;99.90;;;;;;5050480;28;20028;-62
2023/03/19 12:40:28;;;;;;;15.30;11.77;;;15.30;99.90;;;;;;5049272;28;20044;-62
2023/03/19 12:42:58;;;;;;;15.98;12.13;;;15.30;99.90;;;;;;5063120;28;20120;-65
2023/03/19 12:45:31;;;;;;;19.42;12.55;;;15.30;99.90;;;;;;5061442;28;20044;-64
2023/03/19 12:48:20;;;;;;;17.33;11.98;;;15.50;99.90;;;;;;5063149;28;20032;-64
2023/03/19 12:50:51;;;;;;;15.68;12.68;;;15.70;99.90;;;;;;5064514;28;20040;-65